createdAt,value
2019-01-17T14:23:08.813Z,4.33
2019-01-17T14:27:14.103Z,5.23
2019-01-17T14:31:18.281Z,3.93
2019-01-17T14:35:21.998Z,6.50
2019-01-17T14:39:25.691Z,3.00
2019-01-17T14:43:29.359Z,6.20
2019-01-17T14:47:32.999Z,5.57
2019-01-17T14:51:36.694Z,3.33
2019-01-17T14:55:40.349Z,11.30
2019-01-17T14:59:44.368Z,5.57
2019-01-17T15:03:48.132Z,8.37
2019-01-17T15:07:51.774Z,5.67
2019-01-17T15:11:55.471Z,11.87
2019-01-17T15:15:59.136Z,4.30
2019-01-17T15:20:02.790Z,8.87
2019-01-17T15:24:06.553Z,6.80
2019-01-17T15:28:10.455Z,7.20
2019-01-17T15:32:14.099Z,9.33
2019-01-17T15:36:17.794Z,5.77
2019-01-17T15:40:31.562Z,6.67
2019-01-17T15:44:35.604Z,11.20
2019-01-17T15:48:39.274Z,6.50
2019-01-17T15:52:42.919Z,8.57
2019-01-17T15:56:46.600Z,10.20
2019-01-17T16:00:50.250Z,13.47
2019-01-17T16:04:53.917Z,11.90
2019-01-17T16:08:57.692Z,11.30
2019-01-17T16:13:01.318Z,5.53
2019-01-17T16:17:05.003Z,10.63
2019-01-17T16:21:08.664Z,10.67
2019-01-17T16:25:13.281Z,7.47
2019-01-17T16:29:16.979Z,8.30
2019-01-17T16:33:20.626Z,13.63
2019-01-17T16:37:24.283Z,15.33
2019-01-17T16:41:27.983Z,10.70
2019-01-17T16:45:35.470Z,6.10
2019-01-17T16:49:37.019Z,10.67
2019-01-17T16:53:40.676Z,5.30
2019-01-17T16:57:48.877Z,4.93
2019-01-17T17:01:49.702Z,6.73
2019-01-17T17:05:53.330Z,9.00
2019-01-17T17:09:56.994Z,5.43
2019-01-17T17:14:00.767Z,6.73
2019-01-17T17:18:04.566Z,9.43
2019-01-17T17:22:22.417Z,12.10
2019-01-17T17:26:26.064Z,9.43
2019-01-17T17:30:31.716Z,10.77
2019-01-17T17:34:35.420Z,5.67
2019-01-17T17:38:39.233Z,9.63
2019-01-17T17:42:42.913Z,8.97
2019-01-17T17:46:46.594Z,12.83
2019-01-17T17:50:50.330Z,5.87
2019-01-17T17:54:54.567Z,6.43
2019-01-17T17:58:58.275Z,5.07
2019-01-17T18:03:01.978Z,6.77
2019-01-17T18:07:05.768Z,7.10
2019-01-17T18:11:09.403Z,5.93
2019-01-17T18:15:13.884Z,6.60
2019-01-17T18:19:17.583Z,5.60
2019-01-17T18:23:21.288Z,6.90
2019-01-17T18:27:25.014Z,7.33
2019-01-17T18:31:28.759Z,8.07
2019-01-17T18:35:32.500Z,8.67
2019-01-17T18:39:36.192Z,12.00
2019-01-17T18:43:39.837Z,12.57
2019-01-17T18:47:43.513Z,10.57
2019-01-17T18:51:47.181Z,9.17
2019-01-17T18:55:50.855Z,14.80
2019-01-17T18:59:54.530Z,16.17
2019-01-17T19:03:58.183Z,15.87
2019-01-17T19:08:01.901Z,14.33
2019-01-17T19:12:05.937Z,21.20
2019-01-17T19:16:09.642Z,20.20
2019-01-17T19:20:14.808Z,21.40
2019-01-17T19:24:18.551Z,20.43
2019-01-17T19:28:22.665Z,17.60
2019-01-17T19:32:26.347Z,22.30
2019-01-17T19:36:30.069Z,10.93
2019-01-17T19:40:33.726Z,22.73
2019-01-17T19:44:37.418Z,22.70
2019-01-17T19:48:41.065Z,21.57
2019-01-17T19:52:44.728Z,24.73
2019-01-17T19:56:48.421Z,28.73
2019-01-17T20:00:52.117Z,38.43
2019-01-17T20:04:57.157Z,22.17
2019-01-17T20:09:00.914Z,28.03
2019-01-17T20:13:05.327Z,29.17
2019-01-17T20:17:09.078Z,24.70
2019-01-17T20:21:12.806Z,26.07
2019-01-17T20:25:16.489Z,34.93
2019-01-17T20:29:20.207Z,37.33
2019-01-17T20:33:23.885Z,33.10
2019-01-17T20:37:27.621Z,30.07
2019-01-17T20:41:31.300Z,41.10
2019-01-17T20:45:34.957Z,39.30
2019-01-17T20:49:38.673Z,43.20
2019-01-17T20:53:42.317Z,32.63
2019-01-17T20:57:47.276Z,40.87
2019-01-17T21:02:20.912Z,34.00
2019-01-17T21:06:24.564Z,35.97
2019-01-17T21:10:28.841Z,29.83
2019-01-17T21:14:32.761Z,39.83
2019-01-17T21:18:36.436Z,33.10
2019-01-17T21:22:40.125Z,32.90
2019-01-17T21:26:44.058Z,28.73
2019-01-17T21:30:47.726Z,20.27
2019-01-17T21:34:51.414Z,25.77
2019-01-17T21:38:55.093Z,22.33
2019-01-17T21:42:59.144Z,24.10
2019-01-17T21:47:02.799Z,16.13
2019-01-17T21:51:06.428Z,15.97
2019-01-17T21:55:10.146Z,18.00
2019-01-17T21:59:14.092Z,20.53
2019-01-17T22:03:17.845Z,16.10
2019-01-17T22:07:21.611Z,19.80
2019-01-17T22:11:25.300Z,19.57
2019-01-17T22:15:28.993Z,26.73
2019-01-17T22:19:32.682Z,30.00
2019-01-17T22:23:36.332Z,25.63
2019-01-17T22:27:40.033Z,32.60
2019-01-17T22:31:43.678Z,30.87
2019-01-17T22:35:47.379Z,36.03
2019-01-17T22:39:51.556Z,32.20
2019-01-17T22:43:55.268Z,56.20
2019-01-17T22:47:58.962Z,42.83
2019-01-17T22:52:02.645Z,50.03
2019-01-17T22:56:06.285Z,40.80
2019-01-17T23:00:36.483Z,39.10
2019-01-17T23:04:40.635Z,50.10
2019-01-17T23:08:44.307Z,50.00
2019-01-17T23:12:47.963Z,47.20
2019-01-17T23:16:51.628Z,36.07
2019-01-17T23:20:55.270Z,41.73
2019-01-17T23:24:59.013Z,32.93
2019-01-17T23:29:02.735Z,41.17
2019-01-17T23:33:06.370Z,38.37
2019-01-17T23:37:10.593Z,37.10
2019-01-17T23:41:14.284Z,53.97
2019-01-17T23:45:17.965Z,42.13
2019-01-17T23:49:21.658Z,38.40
2019-01-17T23:53:25.337Z,33.10
2019-01-17T23:57:29.140Z,39.70
